createdAt,value
2023-03-14T00:00:31.225Z,10.10
2023-03-14T00:03:00.530Z,10.10
2023-03-14T00:05:28.809Z,10.10
2023-03-14T00:07:56.944Z,10.20
2023-03-14T00:10:24.784Z,10.10
2023-03-14T00:12:52.696Z,10.10
2023-03-14T00:15:20.644Z,10.10
2023-03-14T00:17:48.545Z,10.20
2023-03-14T00:20:18.085Z,10.10
2023-03-14T00:22:45.929Z,10.10
2023-03-14T00:25:14.461Z,10.10
2023-03-14T00:27:42.373Z,10.10
2023-03-14T00:30:11.470Z,10.10
2023-03-14T00:32:39.440Z,10.10
2023-03-14T00:35:08.116Z,10.10
2023-03-14T00:37:37.401Z,10.10
2023-03-14T00:40:08.889Z,10.10
2023-03-14T00:42:36.958Z,10.10
2023-03-14T00:45:05.870Z,10.10
2023-03-14T00:47:35.433Z,10.10
2023-03-14T00:50:03.358Z,10.10
2023-03-14T00:52:31.235Z,10.10
2023-03-14T00:55:00.551Z,10.10
2023-03-14T00:57:28.537Z,10.10
2023-03-14T00:59:56.377Z,10.10
2023-03-14T01:02:24.386Z,10.10
2023-03-14T01:04:52.531Z,10.10
2023-03-14T01:07:20.493Z,10.10
2023-03-14T01:09:48.350Z,10.10
2023-03-14T01:12:17.598Z,10.10
2023-03-14T01:14:45.431Z,10.20
2023-03-14T01:17:13.705Z,10.20
2023-03-14T01:19:41.675Z,10.20
2023-03-14T01:22:09.741Z,10.20
2023-03-14T01:24:39.784Z,10.20
2023-03-14T01:27:07.915Z,10.20
2023-03-14T01:29:37.212Z,10.10
2023-03-14T01:32:05.445Z,10.10
2023-03-14T01:34:33.809Z,10.10
2023-03-14T01:37:01.884Z,10.10
2023-03-14T01:39:31.021Z,10.10
2023-03-14T01:42:00.262Z,10.10
2023-03-14T01:44:28.841Z,10.10
2023-03-14T01:46:58.325Z,10.20
2023-03-14T01:49:30.876Z,10.20
2023-03-14T01:52:09.455Z,10.10
2023-03-14T01:54:41.024Z,10.10
2023-03-14T01:57:13.037Z,10.10
2023-03-14T01:59:42.952Z,10.10
2023-03-14T02:02:15.342Z,10.10
2023-03-14T02:04:44.356Z,10.20
2023-03-14T02:07:17.549Z,10.20
2023-03-14T02:09:58.330Z,10.20
2023-03-14T02:12:30.556Z,10.30
2023-03-14T02:15:20.243Z,10.20
2023-03-14T02:17:57.020Z,10.30
2023-03-14T02:20:50.071Z,10.20
2023-03-14T02:23:25.676Z,10.20
2023-03-14T02:25:58.255Z,10.20
2023-03-14T02:28:27.714Z,10.20
2023-03-14T02:30:59.333Z,10.20
2023-03-14T02:33:28.142Z,10.20
2023-03-14T02:36:00.047Z,10.10
2023-03-14T02:38:33.765Z,10.10
2023-03-14T02:41:05.227Z,10.10
2023-03-14T02:43:38.790Z,10.00
2023-03-14T02:46:12.614Z,10.00
2023-03-14T02:48:44.121Z,10.00
2023-03-14T02:51:13.796Z,10.00
2023-03-14T02:53:42.338Z,10.00
2023-03-14T02:56:13.531Z,10.00
2023-03-14T02:58:42.906Z,10.00
2023-03-14T03:01:30.994Z,10.10
2023-03-14T03:04:00.260Z,10.10
2023-03-14T03:06:28.145Z,10.10
2023-03-14T03:08:56.164Z,10.10
2023-03-14T03:11:24.272Z,10.10
2023-03-14T03:13:53.470Z,10.10
2023-03-14T03:16:22.227Z,10.10
2023-03-14T03:18:50.173Z,10.10
2023-03-14T03:21:18.748Z,10.10
2023-03-14T03:23:46.831Z,10.10
2023-03-14T03:26:14.813Z,10.10
2023-03-14T03:28:42.686Z,10.10
2023-03-14T03:31:13.478Z,10.10
2023-03-14T03:33:41.832Z,10.10
2023-03-14T03:36:11.287Z,10.10
2023-03-14T03:38:41.095Z,10.10
2023-03-14T03:41:09.621Z,10.10
2023-03-14T03:43:37.918Z,10.10
2023-03-14T03:46:08.680Z,10.10
2023-03-14T03:48:38.440Z,10.00
2023-03-14T03:51:07.858Z,10.00
2023-03-14T03:53:37.045Z,10.00
2023-03-14T03:56:10.929Z,10.00
2023-03-14T03:58:39.968Z,10.00
2023-03-14T04:01:09.105Z,9.90
2023-03-14T04:03:40.202Z,9.90
2023-03-14T04:06:10.005Z,9.90
2023-03-14T04:08:41.550Z,9.90
2023-03-14T04:11:12.005Z,9.90
2023-03-14T04:13:58.477Z,9.90
2023-03-14T04:16:27.764Z,9.90
2023-03-14T04:19:04.812Z,9.90
2023-03-14T04:21:33.796Z,9.90
2023-03-14T04:24:01.827Z,9.90
2023-03-14T04:26:33.925Z,9.90
2023-03-14T04:29:01.838Z,9.90
2023-03-14T04:31:30.424Z,9.90
2023-03-14T04:33:58.375Z,9.90
2023-03-14T04:36:45.692Z,9.80
2023-03-14T04:39:18.443Z,9.80
2023-03-14T04:41:54.203Z,9.80
2023-03-14T04:44:22.588Z,9.80
2023-03-14T04:46:59.532Z,9.80
2023-03-14T04:49:27.485Z,9.80
2023-03-14T04:51:56.936Z,9.80
2023-03-14T04:54:27.263Z,9.80
2023-03-14T04:56:58.561Z,9.80
2023-03-14T04:59:27.728Z,9.80
2023-03-14T05:02:00.437Z,9.80
2023-03-14T05:04:43.026Z,9.80
2023-03-14T05:07:37.391Z,9.80
2023-03-14T05:10:18.379Z,9.80
2023-03-14T05:13:10.416Z,9.80
2023-03-14T05:16:12.953Z,9.70
2023-03-14T05:18:52.117Z,9.70
2023-03-14T05:21:38.693Z,9.70
2023-03-14T05:24:26.296Z,9.70
2023-03-14T05:26:54.165Z,9.60
2023-03-14T05:29:40.571Z,9.60
2023-03-14T05:32:37.811Z,9.60
2023-03-14T05:35:11.469Z,9.60
2023-03-14T05:37:42.375Z,9.60
2023-03-14T05:40:30.290Z,9.60
2023-03-14T05:43:08.966Z,9.60
2023-03-14T05:45:37.451Z,9.60
2023-03-14T05:48:27.431Z,9.60
2023-03-14T05:51:10.331Z,9.60
2023-03-14T05:54:01.174Z,9.60
2023-03-14T05:57:03.097Z,9.60
2023-03-14T05:59:39.052Z,9.60
2023-03-14T06:02:32.919Z,9.70
2023-03-14T06:05:09.929Z,9.80
2023-03-14T06:07:38.721Z,9.80
2023-03-14T06:10:08.757Z,9.80
2023-03-14T06:12:39.266Z,9.90
2023-03-14T06:15:08.528Z,9.80
2023-03-14T06:17:36.596Z,9.90
2023-03-14T06:20:11.009Z,9.90
2023-03-14T06:22:46.864Z,9.90
2023-03-14T06:25:16.017Z,9.90
2023-03-14T06:27:48.759Z,9.90
2023-03-14T06:30:18.748Z,9.90
2023-03-14T06:32:49.311Z,9.90
2023-03-14T06:35:19.375Z,9.90
2023-03-14T06:37:47.361Z,9.90
2023-03-14T06:40:18.762Z,9.90
2023-03-14T06:43:06.623Z,10.00
2023-03-14T06:45:36.776Z,10.00
2023-03-14T06:48:05.785Z,10.10
2023-03-14T06:50:40.112Z,10.10
2023-03-14T06:53:08.126Z,10.10
2023-03-14T06:55:39.169Z,10.20
2023-03-14T06:58:09.727Z,10.20
2023-03-14T07:00:43.542Z,10.20
2023-03-14T07:03:15.842Z,10.40
2023-03-14T07:05:47.088Z,10.60
2023-03-14T07:08:15.819Z,10.60
2023-03-14T07:10:43.805Z,10.60
2023-03-14T07:13:13.463Z,10.70
2023-03-14T07:15:59.585Z,10.70
2023-03-14T07:18:27.594Z,10.70
2023-03-14T07:20:55.546Z,10.80
2023-03-14T07:23:23.583Z,10.90
2023-03-14T07:25:54.717Z,11.00
2023-03-14T07:28:28.112Z,11.10
2023-03-14T07:31:04.799Z,11.20
2023-03-14T07:33:34.696Z,11.30
2023-03-14T07:36:04.530Z,11.30
2023-03-14T07:38:32.795Z,11.40
2023-03-14T07:41:24.993Z,11.50
2023-03-14T07:44:13.325Z,11.60
2023-03-14T07:46:41.774Z,11.70
2023-03-14T07:49:09.686Z,11.80
2023-03-14T07:51:37.610Z,11.90
2023-03-14T07:54:05.693Z,11.90
2023-03-14T07:56:33.697Z,12.00
2023-03-14T07:59:02.042Z,12.10
2023-03-14T08:01:31.343Z,12.00
2023-03-14T08:03:59.544Z,12.10
2023-03-14T08:06:27.552Z,12.10
2023-03-14T08:08:55.507Z,12.20
2023-03-14T08:11:23.469Z,12.10
2023-03-14T08:13:52.647Z,12.10
2023-03-14T08:16:21.114Z,12.30
2023-03-14T08:18:50.448Z,12.40
2023-03-14T08:21:18.430Z,12.40
2023-03-14T08:23:46.373Z,12.50
2023-03-14T08:26:14.293Z,12.60
2023-03-14T08:28:42.161Z,12.80
2023-03-14T08:31:10.196Z,13.00
2023-03-14T08:33:38.189Z,13.20
2023-03-14T08:36:08.289Z,13.30
2023-03-14T08:38:36.352Z,13.20
2023-03-14T08:41:04.899Z,13.10
2023-03-14T08:43:32.908Z,13.10
2023-03-14T08:46:02.379Z,13.20
2023-03-14T08:48:30.768Z,13.10
2023-03-14T08:50:58.957Z,13.00
2023-03-14T08:53:28.150Z,13.00
2023-03-14T08:55:56.453Z,13.10
2023-03-14T08:58:24.771Z,13.20
2023-03-14T09:00:53.172Z,13.30
2023-03-14T09:03:21.179Z,13.60
2023-03-14T09:05:49.167Z,13.80
2023-03-14T09:08:17.398Z,13.60
2023-03-14T09:10:46.639Z,13.60
2023-03-14T09:13:14.546Z,13.50
2023-03-14T09:15:43.434Z,13.30
2023-03-14T09:18:11.446Z,13.10
2023-03-14T09:20:39.339Z,13.20
2023-03-14T09:23:07.231Z,13.20
2023-03-14T09:25:35.252Z,13.20
2023-03-14T09:28:04.639Z,13.20
2023-03-14T09:30:32.788Z,13.20
2023-03-14T09:33:01.021Z,13.30
2023-03-14T09:35:30.132Z,13.10
2023-03-14T09:37:58.084Z,13.00
2023-03-14T09:40:26.566Z,13.10
2023-03-14T09:42:56.862Z,13.10
2023-03-14T09:45:29.766Z,13.00
2023-03-14T09:48:00.206Z,13.10
2023-03-14T09:50:34.070Z,13.30
2023-03-14T09:53:06.584Z,13.20
2023-03-14T09:55:36.644Z,13.20
2023-03-14T09:58:10.877Z,13.10
2023-03-14T10:00:40.382Z,13.10
2023-03-14T10:03:27.895Z,13.30
2023-03-14T10:05:57.960Z,13.30
2023-03-14T10:08:25.920Z,13.50
2023-03-14T10:10:54.656Z,14.00
2023-03-14T10:13:25.367Z,14.30
2023-03-14T10:15:57.745Z,14.20
2023-03-14T10:18:29.019Z,14.30
2023-03-14T10:21:07.644Z,14.20
2023-03-14T10:23:36.706Z,14.70
2023-03-14T10:26:10.323Z,15.30
2023-03-14T10:28:42.036Z,15.30
2023-03-14T10:31:11.348Z,15.60
2023-03-14T10:33:40.904Z,15.30
2023-03-14T10:36:21.512Z,14.80
2023-03-14T10:38:49.895Z,14.20
2023-03-14T10:41:21.586Z,14.20
2023-03-14T10:43:52.738Z,14.00
2023-03-14T10:46:22.772Z,13.90
2023-03-14T10:49:09.723Z,14.00
2023-03-14T10:51:37.695Z,14.20
2023-03-14T10:54:15.388Z,14.10
2023-03-14T10:56:43.401Z,14.00
2023-03-14T10:59:16.588Z,14.00
2023-03-14T11:01:52.292Z,13.90
2023-03-14T11:04:43.477Z,13.90
2023-03-14T11:07:16.470Z,13.70
2023-03-14T11:09:48.859Z,13.40
2023-03-14T11:12:36.442Z,13.20
2023-03-14T11:15:11.194Z,13.00
2023-03-14T11:17:48.190Z,12.90
2023-03-14T11:20:33.260Z,12.90
2023-03-14T11:23:09.515Z,13.00
2023-03-14T11:25:46.421Z,12.80
2023-03-14T11:28:20.593Z,12.20
2023-03-14T11:30:53.971Z,11.80
2023-03-14T11:33:29.192Z,11.60
2023-03-14T11:36:04.385Z,11.40
2023-03-14T11:38:38.190Z,11.30
2023-03-14T11:41:11.418Z,11.20
2023-03-14T11:43:43.965Z,11.20
2023-03-14T11:46:16.528Z,11.20
2023-03-14T11:48:55.765Z,11.20
2023-03-14T11:51:26.363Z,11.20
2023-03-14T11:54:06.294Z,11.20
2023-03-14T11:56:39.706Z,11.20
2023-03-14T11:59:14.169Z,11.10
2023-03-14T12:01:56.290Z,11.00
2023-03-14T12:04:37.063Z,11.00
2023-03-14T12:07:11.499Z,11.20
2023-03-14T12:09:39.585Z,11.40
2023-03-14T12:12:08.872Z,11.60
2023-03-14T12:14:38.688Z,11.60
2023-03-14T12:17:08.970Z,11.70
2023-03-14T12:19:40.624Z,11.50
2023-03-14T12:22:28.743Z,11.30
2023-03-14T12:25:02.307Z,11.30
2023-03-14T12:27:48.780Z,11.30
2023-03-14T12:30:28.329Z,11.40
2023-03-14T12:33:23.762Z,11.40
2023-03-14T12:35:54.560Z,11.40
2023-03-14T12:38:30.381Z,11.60
2023-03-14T12:41:03.796Z,11.60
2023-03-14T12:43:34.142Z,11.80
2023-03-14T12:46:25.452Z,11.40
2023-03-14T12:48:57.915Z,11.30
2023-03-14T12:51:36.993Z,11.60
2023-03-14T12:54:18.699Z,11.50
2023-03-14T12:57:06.323Z,11.50
2023-03-14T12:59:36.512Z,11.40
2023-03-14T13:02:24.199Z,11.60
2023-03-14T13:04:55.883Z,11.70
2023-03-14T13:07:37.096Z,11.90
2023-03-14T13:10:21.860Z,11.80
2023-03-14T13:12:56.161Z,11.40
2023-03-14T13:15:28.944Z,10.90
2023-03-14T13:18:01.624Z,10.90
2023-03-14T13:20:33.481Z,10.90
2023-03-14T13:23:03.086Z,10.80
2023-03-14T13:25:36.772Z,10.70
2023-03-14T13:28:05.573Z,10.80
2023-03-14T13:30:42.423Z,10.70
2023-03-14T13:33:15.676Z,10.80
2023-03-14T13:35:47.685Z,10.80
2023-03-14T13:38:20.572Z,10.60
2023-03-14T13:40:49.334Z,10.40
2023-03-14T13:43:20.423Z,10.40
2023-03-14T13:45:52.332Z,10.30
2023-03-14T13:48:20.880Z,10.30
2023-03-14T13:50:54.816Z,10.50
2023-03-14T13:53:25.543Z,10.70
2023-03-14T13:55:54.289Z,10.70
2023-03-14T13:58:25.094Z,10.70
2023-03-14T14:01:06.317Z,10.60
2023-03-14T14:03:37.880Z,10.40
2023-03-14T14:06:08.167Z,10.20
2023-03-14T14:08:38.339Z,10.00
2023-03-14T14:11:07.069Z,9.90
2023-03-14T14:13:37.032Z,9.80
2023-03-14T14:16:06.268Z,9.80
2023-03-14T14:18:35.646Z,9.80
2023-03-14T14:21:04.900Z,9.70
2023-03-14T14:23:33.348Z,9.70
2023-03-14T14:26:02.638Z,9.60
2023-03-14T14:28:32.951Z,9.50
2023-03-14T14:31:20.824Z,9.60
2023-03-14T14:33:56.798Z,9.60
2023-03-14T14:36:27.784Z,9.50
2023-03-14T14:38:59.459Z,9.40
2023-03-14T14:41:34.635Z,9.40
2023-03-14T14:44:04.759Z,9.40
2023-03-14T14:46:35.830Z,9.30
2023-03-14T14:49:11.088Z,9.30
2023-03-14T14:51:44.132Z,9.30
2023-03-14T14:54:15.129Z,9.40
2023-03-14T14:56:49.529Z,9.30
2023-03-14T14:59:27.923Z,9.30
2023-03-14T15:02:00.652Z,9.40
2023-03-14T15:04:31.814Z,9.40
2023-03-14T15:06:59.947Z,9.50
2023-03-14T15:09:27.955Z,9.60
2023-03-14T15:11:57.239Z,9.70
2023-03-14T15:14:25.131Z,9.90
2023-03-14T15:16:53.181Z,10.40
2023-03-14T15:19:25.773Z,10.40
2023-03-14T15:21:55.238Z,10.40
2023-03-14T15:24:23.678Z,10.20
2023-03-14T15:26:52.109Z,10.10
2023-03-14T15:29:21.511Z,10.00
2023-03-14T15:31:49.608Z,9.80
2023-03-14T15:34:17.631Z,9.80
2023-03-14T15:36:45.620Z,9.70
2023-03-14T15:39:13.916Z,9.70
2023-03-14T15:41:41.970Z,9.60
2023-03-14T15:44:09.999Z,9.70
2023-03-14T15:46:40.573Z,9.70
2023-03-14T15:49:10.062Z,9.60
2023-03-14T15:51:38.050Z,9.60
2023-03-14T15:54:06.120Z,9.70
2023-03-14T15:56:34.175Z,9.80
2023-03-14T15:59:02.171Z,9.80
2023-03-14T16:01:30.375Z,9.80
2023-03-14T16:03:59.673Z,9.90
2023-03-14T16:06:27.878Z,9.90
2023-03-14T16:08:55.840Z,9.90
2023-03-14T16:11:24.747Z,9.80
2023-03-14T16:13:53.147Z,9.70
2023-03-14T16:16:21.630Z,9.50
2023-03-14T16:18:51.113Z,9.40
2023-03-14T16:21:22.100Z,9.30
2023-03-14T16:23:50.277Z,9.20
2023-03-14T16:26:20.892Z,9.10
2023-03-14T16:28:49.817Z,9.10
2023-03-14T16:31:21.185Z,9.10
2023-03-14T16:33:49.298Z,9.10
2023-03-14T16:36:17.240Z,9.10
2023-03-14T16:38:47.506Z,9.10
2023-03-14T16:41:17.611Z,9.20
2023-03-14T16:43:45.913Z,9.20
2023-03-14T16:46:16.773Z,9.20
2023-03-14T16:48:45.445Z,9.10
2023-03-14T16:51:14.111Z,9.10
2023-03-14T16:53:42.066Z,9.10
2023-03-14T16:56:11.617Z,9.00
2023-03-14T16:58:39.864Z,9.00
2023-03-14T17:01:11.282Z,9.10
2023-03-14T17:03:40.379Z,9.10
2023-03-14T17:06:09.322Z,9.10
2023-03-14T17:08:37.319Z,9.10
2023-03-14T17:11:05.490Z,9.10
2023-03-14T17:13:34.754Z,9.10
2023-03-14T17:16:03.643Z,9.10
2023-03-14T17:18:32.879Z,9.10
2023-03-14T17:21:01.877Z,9.00
2023-03-14T17:23:32.031Z,8.70
2023-03-14T17:26:00.151Z,8.60
2023-03-14T17:28:28.927Z,8.30
2023-03-14T17:31:06.352Z,8.30
2023-03-14T17:33:34.997Z,8.20
2023-03-14T17:36:03.133Z,8.00
2023-03-14T17:38:31.157Z,7.80
2023-03-14T17:40:59.329Z,7.70
2023-03-14T17:43:27.242Z,7.60
2023-03-14T17:45:59.736Z,7.50
2023-03-14T17:48:29.575Z,7.50
2023-03-14T17:51:00.659Z,7.40
2023-03-14T17:53:30.115Z,7.40
2023-03-14T17:55:58.266Z,7.40
2023-03-14T17:58:27.203Z,7.30
2023-03-14T18:00:55.358Z,7.30
2023-03-14T18:03:23.486Z,7.30
2023-03-14T18:05:52.736Z,7.40
2023-03-14T18:08:20.824Z,7.30
2023-03-14T18:10:48.739Z,7.30
2023-03-14T18:13:16.644Z,7.30
2023-03-14T18:15:44.627Z,7.30
2023-03-14T18:18:12.546Z,7.30
2023-03-14T18:20:40.420Z,7.00
2023-03-14T18:23:16.345Z,6.90
2023-03-14T18:25:44.685Z,6.80
2023-03-14T18:28:12.960Z,6.70
2023-03-14T18:30:41.528Z,6.70
2023-03-14T18:33:09.625Z,6.60
2023-03-14T18:35:38.593Z,6.60
2023-03-14T18:38:06.577Z,6.60
2023-03-14T18:40:36.995Z,6.50
2023-03-14T18:43:05.722Z,6.60
2023-03-14T18:45:33.671Z,6.50
2023-03-14T18:48:01.603Z,6.50
2023-03-14T18:50:29.547Z,6.60
2023-03-14T18:52:57.501Z,6.50
2023-03-14T18:55:25.376Z,6.50
2023-03-14T18:57:54.736Z,6.50
2023-03-14T19:00:23.410Z,6.50
2023-03-14T19:02:52.750Z,6.50
2023-03-14T19:05:21.254Z,6.50
2023-03-14T19:07:49.186Z,6.50
2023-03-14T19:10:17.376Z,6.50
2023-03-14T19:12:45.289Z,6.50
2023-03-14T19:15:14.848Z,6.50
2023-03-14T19:17:42.762Z,6.50
2023-03-14T19:20:12.385Z,6.50
2023-03-14T19:22:40.284Z,6.50
2023-03-14T19:25:10.735Z,6.50
2023-03-14T19:27:39.047Z,6.50
2023-03-14T19:30:08.360Z,6.50
2023-03-14T19:32:37.791Z,6.40
2023-03-14T19:35:06.874Z,6.50
2023-03-14T19:37:34.875Z,6.50
2023-03-14T19:40:03.227Z,6.40
2023-03-14T19:42:31.155Z,6.30
2023-03-14T19:44:59.109Z,6.30
2023-03-14T19:47:27.124Z,6.30
2023-03-14T19:49:59.054Z,6.30
2023-03-14T19:52:27.121Z,6.30
2023-03-14T19:54:55.046Z,6.30
2023-03-14T19:57:23.017Z,6.30
2023-03-14T19:59:51.163Z,6.30
2023-03-14T20:02:19.738Z,6.30
2023-03-14T20:04:48.075Z,6.20
2023-03-14T20:07:17.434Z,6.30
2023-03-14T20:09:45.623Z,6.30
2023-03-14T20:12:13.629Z,6.40
2023-03-14T20:14:41.799Z,6.30
2023-03-14T20:17:10.244Z,6.40
2023-03-14T20:19:38.170Z,6.40
2023-03-14T20:22:06.190Z,6.50
2023-03-14T20:24:35.741Z,6.50
2023-03-14T20:27:04.181Z,6.50
2023-03-14T20:29:32.115Z,6.50
2023-03-14T20:32:00.489Z,6.40
2023-03-14T20:34:32.325Z,6.40
2023-03-14T20:37:02.740Z,6.40
2023-03-14T20:39:32.544Z,6.50
2023-03-14T20:42:03.541Z,6.50
2023-03-14T20:44:31.401Z,6.60
2023-03-14T20:47:00.603Z,6.60
2023-03-14T20:49:28.684Z,6.60
2023-03-14T20:51:56.608Z,6.70
2023-03-14T20:54:24.732Z,6.70
2023-03-14T20:56:52.650Z,6.70
2023-03-14T20:59:22.004Z,6.70
2023-03-14T21:01:51.495Z,6.70
2023-03-14T21:04:19.444Z,6.80
2023-03-14T21:06:47.501Z,6.80
2023-03-14T21:09:15.475Z,6.80
2023-03-14T21:11:47.102Z,6.80
2023-03-14T21:14:15.305Z,6.80
2023-03-14T21:16:44.725Z,6.70
2023-03-14T21:19:12.800Z,6.80
2023-03-14T21:21:41.030Z,6.80
2023-03-14T21:24:10.073Z,6.80
2023-03-14T21:26:38.002Z,6.80
2023-03-14T21:29:05.909Z,6.80
2023-03-14T21:31:33.869Z,6.80
2023-03-14T21:34:03.149Z,6.80
2023-03-14T21:36:31.974Z,6.70
2023-03-14T21:38:59.873Z,6.80
2023-03-14T21:41:27.769Z,6.70
2023-03-14T21:43:55.683Z,6.60
2023-03-14T21:46:25.796Z,6.50
2023-03-14T21:48:54.512Z,6.40
2023-03-14T21:51:29.855Z,6.30
2023-03-14T21:53:58.447Z,6.20
2023-03-14T21:56:27.419Z,6.10
2023-03-14T21:58:56.635Z,5.90
2023-03-14T22:01:25.090Z,5.80
2023-03-14T22:03:53.694Z,5.70
2023-03-14T22:06:23.006Z,5.60
2023-03-14T22:08:51.007Z,5.70
2023-03-14T22:11:18.948Z,5.70
2023-03-14T22:13:46.855Z,5.60
2023-03-14T22:16:14.829Z,5.50
2023-03-14T22:18:42.757Z,5.50
2023-03-14T22:21:10.621Z,5.50
2023-03-14T22:23:39.942Z,5.50
2023-03-14T22:26:07.931Z,5.60
2023-03-14T22:28:35.954Z,5.20
2023-03-14T22:31:03.839Z,4.90
2023-03-14T22:33:31.938Z,4.40
2023-03-14T22:36:00.056Z,4.10
2023-03-14T22:38:28.061Z,4.00
2023-03-14T22:41:01.289Z,3.60
2023-03-14T22:43:29.541Z,3.50
2023-03-14T22:46:01.110Z,3.20
2023-03-14T22:48:29.414Z,3.10
2023-03-14T22:50:57.339Z,3.10
2023-03-14T22:53:25.624Z,3.00
2023-03-14T22:56:00.306Z,3.00
2023-03-14T22:58:28.920Z,2.90
2023-03-14T23:00:57.285Z,2.90
2023-03-14T23:03:25.274Z,2.80
2023-03-14T23:05:54.697Z,2.80
2023-03-14T23:08:22.670Z,2.70
2023-03-14T23:10:53.398Z,2.70
2023-03-14T23:13:23.684Z,2.70
2023-03-14T23:15:51.571Z,2.70
2023-03-14T23:18:19.550Z,2.70
2023-03-14T23:20:49.296Z,2.70
2023-03-14T23:23:17.316Z,2.70
2023-03-14T23:25:53.306Z,2.80
2023-03-14T23:28:23.615Z,2.70
2023-03-14T23:30:55.881Z,2.70
2023-03-14T23:33:24.157Z,2.80
2023-03-14T23:35:54.432Z,2.80
2023-03-14T23:38:24.415Z,2.80
2023-03-14T23:40:52.488Z,2.80
2023-03-14T23:43:21.076Z,2.80
2023-03-14T23:45:53.224Z,2.70
2023-03-14T23:48:21.395Z,2.70
2023-03-14T23:50:49.332Z,2.70
2023-03-14T23:53:17.284Z,2.70
2023-03-14T23:55:45.152Z,2.70
2023-03-14T23:58:13.082Z,2.60
